Time;durP1;ratioP1;P1;durP2;ratioP2;P2;SDS_P1;SDS_P2;PMS_P1;PMS_P2;Temp;Humidity;BMP_temperature;BMP_pressure;BME280_temperature;BME280_humidity;BME280_pressure;Samples;Min_cycle;Max_cycle;Signal;HPM_P1;HPM_P2
2021/09/06 00:00:27;;;;;;;6.07;3.43;;;16.10;99.90;;;;;;5015291;28;20936;-53
2021/09/06 00:02:54;;;;;;;5.60;3.30;;;16.10;99.90;;;;;;5015424;28;20464;-54
2021/09/06 00:05:21;;;;;;;7.30;4.40;;;16.10;99.90;;;;;;5015559;28;20515;-46
2021/09/06 00:07:48;;;;;;;11.57;6.77;;;16.10;99.90;;;;;;5015237;28;20444;-51
2021/09/06 00:10:30;;;;;;;6.07;4.20;;;16.00;99.90;;;;;;5015458;28;20461;-49
2021/09/06 00:12:56;;;;;;;6.73;4.10;;;16.00;99.90;;;;;;5015096;28;20546;-52
2021/09/06 00:15:23;;;;;;;7.10;3.60;;;15.90;99.90;;;;;;5015363;28;20849;-50
2021/09/06 00:17:51;;;;;;;5.33;3.50;;;15.90;99.90;;;;;;5015004;28;20460;-47
2021/09/06 00:20:18;;;;;;;7.20;3.63;;;15.90;99.90;;;;;;5014988;28;20901;-48
2021/09/06 00:22:44;;;;;;;7.03;4.10;;;15.80;99.90;;;;;;5015282;28;20453;-47
2021/09/06 00:25:11;;;;;;;5.47;3.03;;;15.80;99.90;;;;;;5014870;28;20786;-52
2021/09/06 00:27:38;;;;;;;12.40;3.53;;;15.80;99.90;;;;;;5015088;28;20457;-53
2021/09/06 00:30:06;;;;;;;6.27;3.53;;;15.70;99.90;;;;;;5015216;28;20441;-52
2021/09/06 00:32:33;;;;;;;7.40;3.43;;;15.80;99.90;;;;;;5014872;28;20871;-54
2021/09/06 00:35:01;;;;;;;4.67;3.00;;;15.80;99.90;;;;;;5014466;28;20465;-48
2021/09/06 00:37:27;;;;;;;8.70;3.27;;;15.70;99.90;;;;;;5014866;28;20817;-51
2021/09/06 00:39:54;;;;;;;6.00;3.77;;;15.70;99.90;;;;;;5015068;28;20499;-51
2021/09/06 00:42:21;;;;;;;4.60;3.50;;;15.70;99.90;;;;;;5014527;28;20515;-53
2021/09/06 00:44:48;;;;;;;4.33;3.10;;;15.70;99.90;;;;;;5014639;28;20459;-54
2021/09/06 00:47:16;;;;;;;6.37;3.40;;;15.70;99.90;;;;;;5014954;28;20452;-54
2021/09/06 00:49:43;;;;;;;3.90;2.97;;;15.70;99.90;;;;;;5014712;28;20471;-54
2021/09/06 00:52:11;;;;;;;5.67;4.07;;;15.60;99.90;;;;;;5014762;28;20820;-55
2021/09/06 00:54:38;;;;;;;10.97;3.33;;;15.60;99.90;;;;;;5013845;28;20445;-52
2021/09/06 00:57:05;;;;;;;6.03;3.20;;;15.60;99.90;;;;;;5014718;28;20457;-53
2021/09/06 00:59:32;;;;;;;4.17;2.93;;;15.60;99.90;;;;;;5014654;28;20461;-54
2021/09/06 01:01:58;;;;;;;4.57;2.60;;;15.60;99.90;;;;;;5014387;28;20503;-48
2021/09/06 01:04:25;;;;;;;6.00;3.27;;;15.60;99.90;;;;;;5014596;28;20452;-48
2021/09/06 01:06:52;;;;;;;5.20;3.43;;;15.60;99.90;;;;;;5014388;28;20480;-53
2021/09/06 01:09:20;;;;;;;4.90;4.10;;;15.60;99.90;;;;;;5014550;28;20518;-49
2021/09/06 01:11:46;;;;;;;5.50;3.23;;;15.50;99.90;;;;;;5014524;28;20445;-50
2021/09/06 01:14:13;;;;;;;5.80;3.00;;;15.50;99.90;;;;;;5014603;28;20836;-51
2021/09/06 01:16:40;;;;;;;6.10;3.50;;;15.50;99.90;;;;;;5014234;28;20461;-53
2021/09/06 01:19:07;;;;;;;6.30;3.03;;;15.50;99.90;;;;;;5014411;28;20518;-50
2021/09/06 01:21:33;;;;;;;5.33;3.53;;;15.40;99.90;;;;;;5014223;28;20449;-50
2021/09/06 01:24:00;;;;;;;5.37;3.20;;;15.40;99.90;;;;;;5014094;28;20796;-51
2021/09/06 01:26:31;;;;;;;4.03;2.83;;;15.40;99.90;;;;;;5014223;28;20468;-53
2021/09/06 01:28:57;;;;;;;4.63;3.57;;;15.40;99.90;;;;;;5014190;28;20483;-53
2021/09/06 01:31:24;;;;;;;3.40;3.00;;;15.30;99.90;;;;;;5014103;28;20444;-52
2021/09/06 01:33:51;;;;;;;7.60;3.13;;;15.30;99.90;;;;;;5014274;28;20481;-53
2021/09/06 01:36:17;;;;;;;7.33;3.50;;;15.30;99.90;;;;;;5014117;28;20445;-48
2021/09/06 01:38:44;;;;;;;7.33;4.20;;;15.20;99.90;;;;;;5014264;28;20453;-51
2021/09/06 01:41:11;;;;;;;5.23;2.97;;;15.20;99.90;;;;;;5014225;28;20511;-49
2021/09/06 01:43:39;;;;;;;3.97;2.83;;;15.20;99.90;;;;;;5014221;28;20807;-51
2021/09/06 01:46:05;;;;;;;4.87;3.30;;;15.20;99.90;;;;;;5014349;28;20452;-49
2021/09/06 01:48:32;;;;;;;5.40;3.40;;;15.10;99.90;;;;;;5013909;28;20485;-49
2021/09/06 01:50:59;;;;;;;3.80;2.77;;;15.10;99.90;;;;;;5014270;28;20448;-50
2021/09/06 01:53:26;;;;;;;8.33;3.40;;;15.10;99.90;;;;;;5014179;28;20546;-48
2021/09/06 01:55:52;;;;;;;5.93;3.63;;;15.10;99.90;;;;;;5014214;28;20441;-48
2021/09/06 01:58:19;;;;;;;3.73;3.37;;;15.10;99.90;;;;;;5014271;28;20452;-49
2021/09/06 02:00:47;;;;;;;5.87;3.60;;;15.00;99.90;;;;;;5014047;28;20457;-49
2021/09/06 02:03:16;;;;;;;3.27;2.50;;;15.10;99.90;;;;;;5014232;28;20437;-48
2021/09/06 02:05:43;;;;;;;5.70;3.10;;;15.10;99.90;;;;;;5015018;28;20449;-49
2021/09/06 02:08:10;;;;;;;5.37;3.30;;;15.00;99.90;;;;;;5017643;28;20444;-49
2021/09/06 02:10:37;;;;;;;5.03;3.60;;;15.00;99.90;;;;;;5017625;28;20456;-52
2021/09/06 02:13:04;;;;;;;5.43;3.57;;;15.00;99.90;;;;;;5017473;28;20474;-50
2021/09/06 02:15:31;;;;;;;4.40;3.17;;;15.00;99.90;;;;;;5017526;28;20522;-53
2021/09/06 02:17:59;;;;;;;6.17;3.07;;;14.90;99.90;;;;;;5017238;28;20868;-55
2021/09/06 02:20:25;;;;;;;4.83;3.50;;;14.90;99.90;;;;;;5017489;28;20856;-54
2021/09/06 02:22:52;;;;;;;7.43;3.57;;;14.90;99.90;;;;;;5017147;28;20449;-54
2021/09/06 02:25:19;;;;;;;7.03;3.67;;;14.90;99.90;;;;;;5017271;28;20523;-51
2021/09/06 02:27:45;;;;;;;3.60;2.73;;;14.90;99.90;;;;;;5017479;28;20522;-53
2021/09/06 02:30:13;;;;;;;8.17;3.30;;;14.80;99.90;;;;;;5017300;28;20453;-51
2021/09/06 02:32:40;;;;;;;6.07;3.20;;;14.80;99.90;;;;;;5017240;28;20476;-54
2021/09/06 02:35:09;;;;;;;4.80;3.17;;;14.80;99.90;;;;;;5017226;28;20453;-55
2021/09/06 02:37:35;;;;;;;3.80;3.27;;;14.80;99.90;;;;;;5017025;28;20437;-56
2021/09/06 02:40:02;;;;;;;4.50;3.63;;;14.70;99.90;;;;;;5017171;28;20444;-52
2021/09/06 02:42:29;;;;;;;6.50;3.43;;;14.70;99.90;;;;;;5016985;28;20453;-54
2021/09/06 02:44:55;;;;;;;4.93;4.17;;;14.70;99.90;;;;;;5016792;28;20503;-53
2021/09/06 02:47:22;;;;;;;7.23;3.43;;;14.60;99.90;;;;;;5016060;28;20506;-51
2021/09/06 02:49:49;;;;;;;4.17;3.00;;;14.60;99.90;;;;;;5016916;28;20605;-51
2021/09/06 02:52:17;;;;;;;3.57;2.93;;;14.60;99.90;;;;;;5017016;28;20445;-52
2021/09/06 02:54:43;;;;;;;4.20;3.20;;;14.60;99.90;;;;;;5016708;28;20498;-53
2021/09/06 02:57:10;;;;;;;4.50;2.63;;;14.60;99.90;;;;;;5016818;28;20437;-53
2021/09/06 02:59:37;;;;;;;3.47;2.90;;;14.60;99.90;;;;;;5016434;28;20530;-49
2021/09/06 03:02:04;;;;;;;3.80;3.40;;;14.60;99.90;;;;;;5016719;28;20452;-47
2021/09/06 03:04:31;;;;;;;5.17;3.77;;;14.50;99.90;;;;;;5016401;28;20449;-49
2021/09/06 03:06:58;;;;;;;4.20;2.77;;;14.50;99.90;;;;;;5016480;28;20452;-53
2021/09/06 03:09:27;;;;;;;6.33;4.33;;;14.50;99.90;;;;;;5016649;28;20518;-52
2021/09/06 03:11:53;;;;;;;5.37;3.47;;;14.50;99.90;;;;;;5016467;28;20453;-50
2021/09/06 03:14:23;;;;;;;7.90;3.57;;;14.50;99.90;;;;;;5016117;28;20477;-52
2021/09/06 03:16:50;;;;;;;5.90;3.50;;;14.50;99.90;;;;;;5015861;28;20519;-49
2021/09/06 03:19:17;;;;;;;5.00;3.60;;;14.50;99.90;;;;;;5016233;28;20449;-54
2021/09/06 03:21:44;;;;;;;4.07;3.40;;;14.40;99.90;;;;;;5015876;28;20449;-53
2021/09/06 03:24:10;;;;;;;5.80;4.13;;;14.40;99.90;;;;;;5015927;28;20445;-52
2021/09/06 03:26:39;;;;;;;3.63;3.13;;;14.40;99.90;;;;;;5016336;28;20453;-52
2021/09/06 03:29:05;;;;;;;6.37;3.63;;;14.40;99.90;;;;;;5015884;28;20499;-52
2021/09/06 03:31:32;;;;;;;7.87;4.03;;;14.40;99.90;;;;;;5015711;28;20456;-52
2021/09/06 03:33:59;;;;;;;5.00;3.83;;;14.40;99.90;;;;;;5016132;28;20901;-51
2021/09/06 03:36:26;;;;;;;4.63;3.60;;;14.30;99.90;;;;;;5015818;28;20507;-54
2021/09/06 03:38:55;;;;;;;4.83;3.80;;;14.30;99.90;;;;;;5015873;28;20472;-54
2021/09/06 03:41:22;;;;;;;8.40;3.20;;;14.20;99.90;;;;;;5015788;28;20449;-56
2021/09/06 03:43:51;;;;;;;4.90;3.70;;;14.20;99.90;;;;;;5015945;28;20441;-52
2021/09/06 03:46:18;;;;;;;4.10;3.10;;;14.20;99.90;;;;;;5015640;28;20449;-53
2021/09/06 03:48:45;;;;;;;7.60;3.70;;;14.20;99.90;;;;;;5015597;28;20516;-52
2021/09/06 03:51:11;;;;;;;9.10;3.70;;;14.20;99.90;;;;;;5015988;28;20480;-50
2021/09/06 03:53:38;;;;;;;8.40;4.20;;;14.20;99.90;;;;;;5015579;28;21033;-49
2021/09/06 03:56:05;;;;;;;4.97;3.60;;;14.20;99.90;;;;;;5015743;28;20468;-55
2021/09/06 03:58:31;;;;;;;5.60;3.00;;;14.20;99.90;;;;;;5015447;28;20509;-53
2021/09/06 04:00:59;;;;;;;5.43;3.63;;;14.10;99.90;;;;;;5015637;28;20524;-51
2021/09/06 04:03:26;;;;;;;7.27;4.13;;;14.10;99.90;;;;;;5015504;28;20465;-48
2021/09/06 04:05:55;;;;;;;4.73;3.60;;;14.00;99.90;;;;;;5015470;28;20507;-52
2021/09/06 04:08:24;;;;;;;6.27;3.80;;;14.00;99.90;;;;;;5015690;28;20452;-51
2021/09/06 04:10:51;;;;;;;8.10;4.13;;;14.00;99.90;;;;;;5015452;28;20484;-49
2021/09/06 04:13:18;;;;;;;7.70;4.53;;;13.90;99.90;;;;;;5015429;28;20480;-50
2021/09/06 04:15:47;;;;;;;5.07;3.80;;;13.90;99.90;;;;;;5015595;28;20457;-59
2021/09/06 04:18:15;;;;;;;8.87;3.90;;;13.90;99.90;;;;;;5015296;28;20461;-54
2021/09/06 04:20:42;;;;;;;6.90;3.63;;;13.90;99.90;;;;;;5015375;28;20461;-49
2021/09/06 04:23:08;;;;;;;4.93;3.60;;;13.90;99.90;;;;;;5015033;28;20493;-49
2021/09/06 04:25:35;;;;;;;6.67;3.43;;;13.80;99.90;;;;;;5014987;28;20449;-51
2021/09/06 04:28:02;;;;;;;6.57;3.63;;;13.80;99.90;;;;;;5015148;28;20842;-47
2021/09/06 04:30:28;;;;;;;6.77;4.67;;;13.80;99.90;;;;;;5014134;28;20894;-51
2021/09/06 04:32:55;;;;;;;9.90;3.87;;;13.80;99.90;;;;;;5015063;28;20511;-52
2021/09/06 04:35:23;;;;;;;6.53;4.40;;;13.80;99.90;;;;;;5014862;28;20520;-54
2021/09/06 04:37:50;;;;;;;4.93;3.43;;;13.80;99.90;;;;;;5015462;28;20461;-50
2021/09/06 04:40:16;;;;;;;4.80;4.17;;;13.80;99.90;;;;;;5015040;28;20445;-52
2021/09/06 04:42:43;;;;;;;4.90;3.53;;;13.80;99.90;;;;;;5014764;28;20452;-47
2021/09/06 04:45:10;;;;;;;7.13;3.67;;;13.80;99.90;;;;;;5014711;28;20922;-49
2021/09/06 04:47:40;;;;;;;7.27;4.60;;;13.80;99.90;;;;;;5014489;28;20551;-50
2021/09/06 04:50:07;;;;;;;5.10;3.40;;;13.70;99.90;;;;;;5014882;28;20764;-52
2021/09/06 04:52:36;;;;;;;6.70;3.90;;;13.70;99.90;;;;;;5014784;28;20449;-54
2021/09/06 04:55:05;;;;;;;8.17;4.03;;;13.70;99.90;;;;;;5014946;28;20547;-58
2021/09/06 04:57:32;;;;;;;11.40;3.80;;;13.80;99.90;;;;;;5014843;28;20790;-52
2021/09/06 04:59:59;;;;;;;8.10;4.70;;;13.80;99.90;;;;;;5014668;28;20452;-48
2021/09/06 05:02:26;;;;;;;8.03;4.67;;;13.80;99.90;;;;;;5014573;28;20460;-48
2021/09/06 05:04:52;;;;;;;8.90;4.10;;;13.70;99.90;;;;;;5014522;28;20503;-54
2021/09/06 05:07:19;;;;;;;7.43;4.80;;;13.70;99.90;;;;;;5014467;28;20452;-55
2021/09/06 05:09:47;;;;;;;6.03;4.07;;;13.70;99.90;;;;;;5019100;28;20515;-50
2021/09/06 05:12:17;;;;;;;6.20;3.70;;;13.70;99.90;;;;;;5017626;28;20461;-54
2021/09/06 05:14:48;;;;;;;5.80;4.23;;;13.80;99.90;;;;;;5014682;28;20499;-55
2021/09/06 05:17:22;;;;;;;7.93;3.50;;;13.80;99.90;;;;;;5026592;28;20471;-54
2021/09/06 05:19:48;;;;;;;4.93;3.90;;;13.80;99.90;;;;;;5035729;28;20437;-52
2021/09/06 05:22:15;;;;;;;5.40;3.70;;;13.90;99.90;;;;;;5032760;28;20531;-51
2021/09/06 05:24:41;;;;;;;6.50;4.63;;;13.90;99.90;;;;;;5053041;28;20509;-52
2021/09/06 05:27:09;;;;;;;7.83;4.10;;;13.90;99.90;;;;;;5062322;28;20463;-48
2021/09/06 05:29:38;;;;;;;5.03;4.23;;;13.90;99.90;;;;;;5062354;28;20458;-53
2021/09/06 05:32:05;;;;;;;5.87;4.27;;;13.90;99.90;;;;;;5061963;28;20475;-51
2021/09/06 05:34:32;;;;;;;5.17;4.00;;;14.00;99.90;;;;;;5062768;28;20489;-54
2021/09/06 05:36:59;;;;;;;6.37;4.63;;;13.90;99.90;;;;;;5062916;28;20447;-49
2021/09/06 05:39:25;;;;;;;7.30;4.73;;;14.00;99.90;;;;;;5062051;28;20485;-50
2021/09/06 05:41:52;;;;;;;6.40;4.63;;;14.10;99.90;;;;;;5070611;28;20485;-50
2021/09/06 05:44:20;;;;;;;11.63;4.77;;;14.10;99.90;;;;;;5076409;28;20451;-52
2021/09/06 05:46:46;;;;;;;7.50;5.70;;;14.10;99.90;;;;;;5075917;28;20465;-50
2021/09/06 05:49:13;;;;;;;7.07;4.40;;;14.10;99.90;;;;;;5075186;28;20485;-50
2021/09/06 05:51:39;;;;;;;9.77;5.23;;;14.10;99.90;;;;;;5076115;28;20577;-54
2021/09/06 05:54:06;;;;;;;6.43;4.20;;;14.20;99.90;;;;;;5075451;28;20475;-54
2021/09/06 05:56:33;;;;;;;7.03;4.97;;;14.20;99.90;;;;;;5075542;28;20471;-54
2021/09/06 05:58:59;;;;;;;5.20;3.67;;;14.20;99.90;;;;;;5075736;28;20477;-54
2021/09/06 06:01:27;;;;;;;8.30;4.80;;;14.20;99.90;;;;;;5075035;28;20473;-54
2021/09/06 06:03:54;;;;;;;11.37;4.43;;;14.30;99.90;;;;;;5075405;28;20512;-50
2021/09/06 06:06:21;;;;;;;5.27;3.53;;;14.30;99.90;;;;;;5074764;28;20480;-51
2021/09/06 06:08:48;;;;;;;4.90;3.60;;;14.30;99.90;;;;;;5078635;28;20473;-53
2021/09/06 06:11:18;;;;;;;8.37;4.60;;;14.40;99.90;;;;;;5080027;28;20569;-52
2021/09/06 06:13:44;;;;;;;8.47;4.67;;;14.50;99.90;;;;;;5079667;28;20467;-54
2021/09/06 06:16:11;;;;;;;10.93;5.33;;;14.50;99.90;;;;;;5079572;28;20831;-53
2021/09/06 06:18:43;;;;;;;7.93;5.20;;;14.50;99.90;;;;;;5079541;28;20439;-48
2021/09/06 06:21:10;;;;;;;8.30;6.00;;;14.60;99.90;;;;;;5079527;28;20445;-51
2021/09/06 06:23:37;;;;;;;6.37;5.57;;;14.60;99.90;;;;;;5079342;28;20443;-52
2021/09/06 06:26:03;;;;;;;8.47;6.60;;;14.60;99.90;;;;;;5079150;28;20483;-49
2021/09/06 06:28:30;;;;;;;11.33;9.43;;;14.70;99.90;;;;;;5079192;28;20466;-48
2021/09/06 06:30:57;;;;;;;17.10;10.60;;;14.80;99.90;;;;;;5078863;28;20470;-51
2021/09/06 06:33:26;;;;;;;16.87;12.30;;;14.80;99.90;;;;;;5079000;28;20452;-51
2021/09/06 06:35:54;;;;;;;17.40;13.97;;;14.90;99.90;;;;;;5079301;28;20428;-51
2021/09/06 06:38:20;;;;;;;15.57;12.13;;;14.90;99.90;;;;;;5059551;28;20447;-50
2021/09/06 06:40:47;;;;;;;19.07;12.20;;;15.00;99.90;;;;;;5058456;28;20448;-48
2021/09/06 06:43:14;;;;;;;15.30;11.57;;;15.10;99.90;;;;;;5051544;28;20436;-48
2021/09/06 06:45:40;;;;;;;19.23;12.23;;;15.10;99.90;;;;;;5054750;28;20463;-50
2021/09/06 06:48:07;;;;;;;13.10;10.37;;;15.20;99.90;;;;;;5038916;28;20473;-53
2021/09/06 06:50:44;;;;;;;17.83;10.40;;;15.30;99.90;;;;;;5050145;28;20412;-53
2021/09/06 06:53:12;;;;;;;14.23;10.50;;;15.40;99.90;;;;;;5056987;28;20416;-51
2021/09/06 06:55:38;;;;;;;17.90;7.70;;;15.50;99.90;;;;;;5057739;28;20488;-51
2021/09/06 06:58:05;;;;;;;11.50;7.50;;;15.50;99.90;;;;;;5058153;28;20432;-51
2021/09/06 07:00:32;;;;;;;6.33;5.40;;;15.60;99.90;;;;;;5058278;28;20592;-51
2021/09/06 07:02:58;;;;;;;9.43;5.80;;;15.70;99.90;;;;;;5042658;28;20436;-50
2021/09/06 07:05:25;;;;;;;7.47;5.10;;;15.70;99.90;;;;;;5036509;28;20518;-52
2021/09/06 07:07:52;;;;;;;5.93;4.33;;;15.70;99.90;;;;;;5036763;28;20440;-51
2021/09/06 07:10:20;;;;;;;7.17;4.90;;;15.80;99.90;;;;;;5036925;28;20448;-51
2021/09/06 07:12:46;;;;;;;7.60;4.80;;;15.90;99.90;;;;;;5037184;28;20448;-54
2021/09/06 07:15:15;;;;;;;14.13;4.63;;;15.90;99.90;;;;;;5038383;28;20468;-48
2021/09/06 07:17:41;;;;;;;8.73;4.97;;;16.00;99.90;;;;;;5036432;28;21251;-51
2021/09/06 07:20:09;;;;;;;5.10;3.93;;;16.10;99.90;;;;;;5033833;28;20463;-52
2021/09/06 07:22:35;;;;;;;9.20;5.17;;;16.20;99.90;;;;;;5037167;28;20447;-48
2021/09/06 07:25:02;;;;;;;7.20;4.00;;;16.30;99.90;;;;;;5037938;28;20475;-51
2021/09/06 07:27:30;;;;;;;11.60;4.87;;;16.40;99.90;;;;;;5037584;28;20448;-51
2021/09/06 07:29:57;;;;;;;5.43;3.83;;;16.40;99.90;;;;;;5038412;28;20498;-48
2021/09/06 07:32:24;;;;;;;7.67;4.47;;;16.50;99.90;;;;;;5037944;28;20448;-52
2021/09/06 07:34:50;;;;;;;11.23;4.63;;;16.60;99.90;;;;;;5037613;28;20480;-52
2021/09/06 07:37:17;;;;;;;6.40;4.10;;;16.70;99.90;;;;;;5036550;28;20762;-52
2021/09/06 07:39:46;;;;;;;6.70;4.90;;;16.80;99.90;;;;;;5036861;28;20510;-52
2021/09/06 07:42:14;;;;;;;8.50;4.13;;;16.90;99.90;;;;;;5037818;28;20774;-51
2021/09/06 07:44:42;;;;;;;9.10;4.80;;;17.00;99.90;;;;;;5038485;28;20527;-53
2021/09/06 07:47:09;;;;;;;6.70;4.23;;;17.10;99.90;;;;;;5037680;28;20440;-51
2021/09/06 07:49:36;;;;;;;14.33;4.27;;;17.20;99.90;;;;;;5036968;28;20476;-51
2021/09/06 07:52:06;;;;;;;6.07;4.20;;;17.20;99.90;;;;;;5036972;28;20470;-52
2021/09/06 07:54:32;;;;;;;6.83;4.63;;;17.20;99.90;;;;;;5035507;28;20491;-54
2021/09/06 07:56:59;;;;;;;6.93;4.37;;;17.30;99.90;;;;;;5035229;28;20913;-51
2021/09/06 07:59:26;;;;;;;10.83;6.67;;;17.40;99.90;;;;;;5034964;28;20452;-52
2021/09/06 08:01:54;;;;;;;10.17;6.27;;;17.50;99.90;;;;;;5034590;28;20462;-50
2021/09/06 08:04:20;;;;;;;8.70;4.73;;;17.70;99.90;;;;;;5025589;28;20444;-52
2021/09/06 08:06:49;;;;;;;6.17;4.60;;;17.90;99.90;;;;;;5024478;28;20441;-51
2021/09/06 08:09:15;;;;;;;8.00;4.73;;;18.40;99.90;;;;;;5024843;28;20498;-56
2021/09/06 08:11:48;;;;;;;16.33;4.83;;;19.70;99.90;;;;;;5025687;28;20444;-55
2021/09/06 08:14:15;;;;;;;6.33;4.33;;;21.90;99.90;;;;;;5025500;28;20481;-56
2021/09/06 08:16:42;;;;;;;6.57;4.73;;;24.20;99.90;;;;;;5023959;28;20437;-54
2021/09/06 08:19:11;;;;;;;11.13;5.57;;;26.00;98.10;;;;;;5030461;28;20456;-52
2021/09/06 08:21:37;;;;;;;7.70;4.60;;;27.90;89.70;;;;;;5036381;28;20494;-47
2021/09/06 08:24:05;;;;;;;8.40;5.43;;;29.60;76.90;;;;;;5037385;28;20448;-52
2021/09/06 08:26:31;;;;;;;8.97;4.93;;;30.50;66.60;;;;;;5037763;28;20462;-52
2021/09/06 08:28:58;;;;;;;8.10;4.90;;;31.20;59.60;;;;;;5038095;28;20909;-54
2021/09/06 08:31:26;;;;;;;6.93;5.30;;;31.60;57.70;;;;;;5038564;28;20440;-50
2021/09/06 08:33:53;;;;;;;8.60;6.47;;;32.60;56.60;;;;;;5037861;28;20475;-51
2021/09/06 08:36:21;;;;;;;9.63;5.93;;;33.10;53.10;;;;;;5038217;28;20486;-53
2021/09/06 08:38:48;;;;;;;6.67;5.37;;;33.60;51.50;;;;;;5038941;28;20828;-51
2021/09/06 08:41:15;;;;;;;8.33;6.20;;;34.10;49.90;;;;;;5034016;28;20787;-51
2021/09/06 08:43:42;;;;;;;6.17;5.57;;;34.00;48.70;;;;;;5029218;28;20476;-52
2021/09/06 08:46:09;;;;;;;5.80;5.30;;;34.00;48.70;;;;;;5029481;28;20444;-53
2021/09/06 08:48:36;;;;;;;6.90;5.43;;;33.90;48.30;;;;;;5032788;28;20526;-49
2021/09/06 08:51:02;;;;;;;7.30;5.67;;;34.00;47.50;;;;;;5028074;28;20444;-48
2021/09/06 08:53:30;;;;;;;9.57;6.73;;;33.80;48.30;;;;;;5034383;28;20497;-53
2021/09/06 08:55:57;;;;;;;10.17;6.73;;;34.00;47.90;;;;;;5037226;28;20475;-51
2021/09/06 08:58:24;;;;;;;9.20;5.90;;;33.90;47.30;;;;;;5037003;28;20783;-49
2021/09/06 09:00:51;;;;;;;6.83;6.13;;;33.60;47.20;;;;;;5036813;28;20513;-50
2021/09/06 09:03:19;;;;;;;7.37;5.50;;;33.50;47.80;;;;;;5037074;28;20535;-52
2021/09/06 09:06:02;;;;;;;7.27;6.53;;;33.50;48.40;;;;;;5036809;28;20436;-54
2021/09/06 09:08:31;;;;;;;11.73;5.80;;;33.70;47.90;;;;;;5028167;28;20457;-52
2021/09/06 09:11:00;;;;;;;7.40;6.70;;;33.70;48.00;;;;;;5017371;28;20449;-52
2021/09/06 09:13:31;;;;;;;7.83;5.43;;;33.70;47.30;;;;;;5013680;28;20457;-49
2021/09/06 09:15:58;;;;;;;7.33;6.10;;;33.50;47.40;;;;;;5018013;28;20480;-52
2021/09/06 09:18:27;;;;;;;11.20;7.27;;;33.60;47.80;;;;;;5020674;28;20468;-50
2021/09/06 09:21:02;;;;;;;8.83;7.33;;;33.20;47.90;;;;;;5020967;28;20514;-53
2021/09/06 09:23:38;;;;;;;9.37;6.90;;;33.00;48.10;;;;;;5020661;28;20897;-52
2021/09/06 09:26:05;;;;;;;7.00;6.30;;;32.90;49.00;;;;;;5021056;28;20466;-51
2021/09/06 09:28:32;;;;;;;7.77;6.13;;;33.20;48.00;;;;;;5025958;28;20453;-54
2021/09/06 09:31:06;;;;;;;7.53;6.77;;;33.00;48.50;;;;;;5023028;28;20514;-55
2021/09/06 09:33:39;;;;;;;8.83;6.13;;;32.80;48.90;;;;;;5023259;28;20453;-50
2021/09/06 09:36:06;;;;;;;9.47;7.10;;;33.20;48.10;;;;;;5023562;28;20945;-54
2021/09/06 09:38:35;;;;;;;10.83;7.43;;;33.30;48.40;;;;;;5024165;28;20476;-52
2021/09/06 09:41:10;;;;;;;7.60;5.97;;;33.20;47.80;;;;;;5023733;28;20449;-50
2021/09/06 09:43:37;;;;;;;9.80;7.37;;;33.20;48.30;;;;;;5023481;28;20799;-48
2021/09/06 09:46:05;;;;;;;8.97;7.30;;;33.10;48.30;;;;;;5026457;28;20456;-51
2021/09/06 09:48:31;;;;;;;11.90;6.80;;;33.30;48.30;;;;;;5028648;28;20461;-53
2021/09/06 09:50:58;;;;;;;11.20;6.70;;;33.40;48.00;;;;;;5028593;28;20479;-51
2021/09/06 09:53:25;;;;;;;8.50;6.97;;;33.80;47.60;;;;;;5028832;28;20480;-50
2021/09/06 09:55:52;;;;;;;7.60;6.50;;;33.50;48.40;;;;;;5028436;28;20480;-52
2021/09/06 09:58:20;;;;;;;8.70;6.63;;;33.40;48.00;;;;;;5041954;28;20479;-52
2021/09/06 10:00:50;;;;;;;8.80;6.80;;;33.50;47.80;;;;;;5033083;28;20440;-48
2021/09/06 10:03:19;;;;;;;9.63;7.07;;;33.50;47.90;;;;;;5045303;28;20464;-51
2021/09/06 10:05:50;;;;;;;9.83;6.63;;;33.40;48.10;;;;;;5031061;28;20451;-50
2021/09/06 10:08:18;;;;;;;9.60;7.80;;;33.20;48.50;;;;;;5039260;28;20440;-50
2021/09/06 10:10:45;;;;;;;8.30;6.73;;;33.20;48.40;;;;;;5047162;28;20451;-47
2021/09/06 10:13:13;;;;;;;8.77;7.07;;;32.70;48.40;;;;;;5046795;28;20471;-51
2021/09/06 10:15:44;;;;;;;8.80;7.17;;;32.60;48.70;;;;;;5038230;28;20514;-53
2021/09/06 10:18:16;;;;;;;8.67;6.90;;;32.30;49.70;;;;;;5035938;28;20440;-49
2021/09/06 10:20:50;;;;;;;7.67;6.50;;;32.10;50.00;;;;;;5042231;28;20799;-51
2021/09/06 10:23:17;;;;;;;8.87;7.43;;;32.10;50.00;;;;;;5046786;28;20432;-51
2021/09/06 10:25:45;;;;;;;11.37;7.00;;;32.10;50.00;;;;;;5043341;28;20433;-53
2021/09/06 10:28:15;;;;;;;8.20;7.07;;;32.10;51.10;;;;;;5045109;28;20920;-50
2021/09/06 10:30:44;;;;;;;7.13;6.43;;;31.90;50.70;;;;;;5045938;28;20535;-49
2021/09/06 10:33:24;;;;;;;8.60;7.10;;;31.90;51.20;;;;;;5045336;28;20999;-49
2021/09/06 10:36:03;;;;;;;8.10;6.80;;;31.70;51.40;;;;;;5044040;28;20463;-48
2021/09/06 10:38:38;;;;;;;7.20;6.33;;;31.60;52.50;;;;;;5044339;28;20455;-49
2021/09/06 10:41:10;;;;;;;10.40;7.20;;;31.30;52.30;;;;;;5043780;28;20440;-52
2021/09/06 10:43:43;;;;;;;11.53;7.40;;;31.20;53.20;;;;;;5044118;28;20467;-52
2021/09/06 10:46:11;;;;;;;8.63;7.00;;;31.00;52.40;;;;;;5042310;28;20445;-49
2021/09/06 10:48:38;;;;;;;8.70;6.40;;;30.80;52.50;;;;;;5027074;28;20861;-50
2021/09/06 10:51:05;;;;;;;9.20;7.43;;;30.40;53.00;;;;;;5024820;28;20980;-54
2021/09/06 10:53:32;;;;;;;8.27;6.77;;;30.20;53.30;;;;;;5023289;28;20568;-53
2021/09/06 10:56:00;;;;;;;11.60;8.37;;;29.70;54.80;;;;;;5023531;28;20859;-55
2021/09/06 10:58:28;;;;;;;8.43;6.73;;;29.30;55.80;;;;;;5023372;28;20445;-52
2021/09/06 11:00:56;;;;;;;10.20;7.60;;;28.90;56.20;;;;;;5030540;28;20436;-53
2021/09/06 11:03:28;;;;;;;10.50;6.53;;;28.60;56.90;;;;;;5043837;28;20459;-52
2021/09/06 11:05:56;;;;;;;10.90;7.53;;;28.30;57.50;;;;;;5038254;28;20774;-48
2021/09/06 11:08:25;;;;;;;8.50;7.60;;;28.10;58.30;;;;;;5025225;28;20453;-51
2021/09/06 11:10:52;;;;;;;14.43;7.67;;;27.80;57.90;;;;;;5024260;28;20485;-52
2021/09/06 11:13:18;;;;;;;10.17;7.53;;;27.60;59.10;;;;;;5023654;28;20853;-50
2021/09/06 11:15:45;;;;;;;10.33;6.53;;;27.40;59.20;;;;;;5024336;28;20481;-49
2021/09/06 11:18:12;;;;;;;11.00;6.87;;;27.30;60.40;;;;;;5024491;28;20445;-49
2021/09/06 11:20:40;;;;;;;9.07;6.63;;;27.20;60.90;;;;;;5024195;28;20503;-51
2021/09/06 11:23:08;;;;;;;14.13;8.10;;;27.10;60.00;;;;;;5023693;28;20445;-51
2021/09/06 11:25:37;;;;;;;9.33;6.43;;;26.80;60.50;;;;;;5024116;28;20495;-53
2021/09/06 11:28:06;;;;;;;8.77;5.80;;;26.60;62.90;;;;;;5027848;28;20467;-53
2021/09/06 11:30:34;;;;;;;8.23;5.80;;;26.50;60.20;;;;;;5043215;28;20895;-53
2021/09/06 11:33:02;;;;;;;7.07;5.67;;;26.30;61.70;;;;;;5043243;28;20823;-50
2021/09/06 11:35:29;;;;;;;9.50;6.90;;;26.20;60.80;;;;;;5043306;28;20586;-52
2021/09/06 11:37:57;;;;;;;8.30;7.00;;;26.10;61.70;;;;;;5043195;28;20498;-49
2021/09/06 11:40:25;;;;;;;9.30;6.73;;;25.90;61.80;;;;;;5042833;28;20455;-53
2021/09/06 11:42:52;;;;;;;10.50;7.17;;;25.60;62.20;;;;;;5043236;28;20832;-48
2021/09/06 11:45:21;;;;;;;7.50;6.20;;;25.40;63.10;;;;;;5043708;28;20456;-50
2021/09/06 11:47:48;;;;;;;6.80;6.20;;;25.30;64.20;;;;;;5046336;28;20530;-46
2021/09/06 11:50:16;;;;;;;8.30;6.57;;;25.20;63.80;;;;;;5056276;28;20935;-52
2021/09/06 11:52:44;;;;;;;8.07;6.57;;;25.20;64.90;;;;;;5052144;28;20435;-48
2021/09/06 11:55:15;;;;;;;11.20;6.97;;;25.20;63.80;;;;;;5044623;28;20452;-52
2021/09/06 11:57:42;;;;;;;11.07;6.60;;;25.10;64.90;;;;;;5045115;28;20428;-51
2021/09/06 12:00:10;;;;;;;9.83;6.30;;;25.30;64.90;;;;;;5049397;28;20819;-53
2021/09/06 12:02:47;;;;;;;7.53;6.63;;;25.20;64.80;;;;;;5041155;28;20475;-50
2021/09/06 12:05:16;;;;;;;10.10;7.17;;;25.20;66.20;;;;;;5043961;28;20517;-51
2021/09/06 12:07:48;;;;;;;10.07;6.37;;;25.00;66.10;;;;;;5044758;28;20448;-53
2021/09/06 12:10:32;;;;;;;9.27;6.50;;;24.90;66.10;;;;;;5045327;28;20452;-51
2021/09/06 12:13:04;;;;;;;15.93;6.57;;;24.90;66.60;;;;;;5043407;28;20452;-51
2021/09/06 12:15:32;;;;;;;8.00;6.97;;;24.90;65.70;;;;;;5045955;28;20474;-51
2021/09/06 12:18:10;;;;;;;8.20;6.60;;;25.10;66.70;;;;;;5045216;28;20456;-51
2021/09/06 12:20:42;;;;;;;9.30;8.37;;;25.20;64.70;;;;;;5034296;28;20965;-52
2021/09/06 12:23:11;;;;;;;8.70;6.63;;;25.20;63.90;;;;;;5025317;28;20437;-51
2021/09/06 12:25:40;;;;;;;10.40;8.03;;;24.90;63.60;;;;;;5024702;28;20480;-51
2021/09/06 12:28:12;;;;;;;10.30;7.73;;;24.60;62.20;;;;;;5025942;28;20445;-52
2021/09/06 12:30:40;;;;;;;11.50;8.07;;;24.50;63.60;;;;;;5027613;28;20436;-50
2021/09/06 12:33:07;;;;;;;11.60;7.97;;;24.30;63.60;;;;;;5034736;28;20453;-49
2021/09/06 12:35:35;;;;;;;8.43;7.30;;;24.30;63.70;;;;;;5031769;28;20445;-51
2021/09/06 12:38:02;;;;;;;10.33;8.23;;;24.30;64.40;;;;;;5034945;28;20440;-50
2021/09/06 12:40:29;;;;;;;9.43;7.47;;;24.20;65.30;;;;;;5045099;28;20448;-48
2021/09/06 12:42:58;;;;;;;11.40;7.23;;;24.20;67.00;;;;;;5044985;28;20444;-50
2021/09/06 12:45:26;;;;;;;10.67;8.00;;;24.30;66.30;;;;;;5046385;28;20451;-51
2021/09/06 12:47:53;;;;;;;9.93;7.50;;;24.30;66.40;;;;;;5046479;28;20472;-49